createdAt,value
2023-02-14T00:01:29.068Z,95.60
2023-02-14T00:04:33.998Z,95.80
2023-02-14T00:07:35.534Z,94.90
2023-02-14T00:10:39.948Z,95.40
2023-02-14T00:14:01.562Z,95.10
2023-02-14T00:17:03.702Z,95.30
2023-02-14T00:20:05.578Z,94.70
2023-02-14T00:23:07.400Z,95.00
2023-02-14T00:26:15.380Z,95.30
2023-02-14T00:29:18.338Z,94.60
2023-02-14T00:32:20.189Z,95.60
2023-02-14T00:35:22.898Z,95.70
2023-02-14T00:38:24.397Z,95.30
2023-02-14T00:41:25.877Z,95.10
2023-02-14T00:44:27.393Z,95.30
2023-02-14T00:47:29.093Z,95.30
2023-02-14T00:50:30.628Z,95.30
2023-02-14T00:53:32.360Z,95.30
2023-02-14T00:56:33.911Z,95.50
2023-02-14T00:59:36.131Z,95.30
2023-02-14T01:02:40.192Z,95.00
2023-02-14T01:05:41.893Z,96.10
2023-02-14T01:08:43.626Z,95.50
2023-02-14T01:11:45.485Z,95.70
2023-02-14T01:14:47.061Z,95.60
2023-02-14T01:17:48.688Z,95.70
2023-02-14T01:20:50.167Z,95.80
2023-02-14T01:23:54.009Z,96.10
2023-02-14T01:26:55.516Z,95.90
2023-02-14T01:29:57.032Z,95.90
2023-02-14T01:32:58.963Z,95.80
2023-02-14T01:36:00.774Z,95.90
2023-02-14T01:39:04.559Z,95.80
2023-02-14T01:42:06.575Z,95.90
2023-02-14T01:45:23.080Z,96.10
2023-02-14T01:48:24.785Z,95.30
2023-02-14T01:51:26.551Z,95.80
2023-02-14T01:54:29.185Z,95.80
2023-02-14T01:57:35.141Z,95.80
2023-02-14T02:00:56.114Z,95.60
2023-02-14T02:04:01.141Z,95.70
2023-02-14T02:07:04.184Z,95.80
2023-02-14T02:10:06.249Z,95.80
2023-02-14T02:13:08.749Z,95.50
2023-02-14T02:16:25.281Z,95.70
2023-02-14T02:19:41.416Z,95.10
2023-02-14T02:22:45.884Z,95.70
2023-02-14T02:25:56.198Z,95.00
2023-02-14T02:29:03.410Z,95.70
2023-02-14T02:32:31.234Z,95.00
2023-02-14T02:35:47.797Z,95.00
2023-02-14T02:39:02.950Z,95.10
2023-02-14T02:42:10.482Z,94.90
2023-02-14T02:45:12.067Z,95.50
2023-02-14T02:48:16.499Z,95.60
2023-02-14T02:51:42.911Z,95.60
2023-02-14T02:54:48.940Z,95.60
2023-02-14T02:57:51.296Z,95.60
2023-02-14T03:00:53.625Z,95.50
2023-02-14T03:04:22.117Z,95.40
2023-02-14T03:07:37.442Z,94.90
2023-02-14T03:10:39.306Z,94.80
2023-02-14T03:13:56.156Z,95.50
2023-02-14T03:17:08.081Z,94.80
2023-02-14T03:20:28.414Z,94.90
2023-02-14T03:23:43.698Z,94.90
2023-02-14T03:26:48.177Z,94.90
2023-02-14T03:29:52.752Z,94.80
2023-02-14T03:32:57.319Z,94.90
2023-02-14T03:36:01.854Z,95.00
2023-02-14T03:39:12.551Z,95.60
2023-02-14T03:42:20.032Z,94.90
2023-02-14T03:45:47.716Z,94.90
2023-02-14T03:48:51.382Z,95.10
2023-02-14T03:51:54.867Z,95.60
2023-02-14T03:54:57.579Z,95.60
2023-02-14T03:58:03.468Z,95.60
2023-02-14T04:01:17.117Z,95.70
2023-02-14T04:04:20.636Z,95.10
2023-02-14T04:07:23.056Z,95.80
2023-02-14T04:10:25.147Z,95.90
2023-02-14T04:13:26.873Z,95.80
2023-02-14T04:16:28.399Z,95.70
2023-02-14T04:19:29.883Z,95.70
2023-02-14T04:22:31.383Z,95.70
2023-02-14T04:25:32.891Z,95.60
2023-02-14T04:28:34.436Z,95.60
2023-02-14T04:31:36.003Z,95.70
2023-02-14T04:34:37.917Z,95.70
2023-02-14T04:37:44.748Z,95.80
2023-02-14T04:41:06.404Z,95.80
2023-02-14T04:44:07.883Z,97.10
2023-02-14T04:47:09.773Z,95.80
2023-02-14T04:50:11.461Z,95.80
2023-02-14T04:53:12.979Z,95.90
2023-02-14T04:56:14.448Z,96.20
2023-02-14T04:59:15.876Z,96.00
2023-02-14T05:02:17.402Z,96.00
2023-02-14T05:05:18.957Z,95.80
2023-02-14T05:08:20.420Z,95.90
2023-02-14T05:11:22.111Z,95.70
2023-02-14T05:14:23.628Z,95.60
2023-02-14T05:17:25.288Z,95.60
2023-02-14T05:20:27.113Z,95.60
2023-02-14T05:23:28.573Z,95.90
2023-02-14T05:26:30.180Z,96.10
2023-02-14T05:29:31.695Z,95.70
2023-02-14T05:32:33.249Z,95.80
2023-02-14T05:35:34.789Z,95.70
2023-02-14T05:38:36.322Z,95.80
2023-02-14T05:44:39.627Z,95.70
2023-02-14T05:47:41.269Z,95.60
2023-02-14T05:50:43.001Z,95.60
2023-02-14T05:53:44.462Z,95.70
2023-02-14T05:56:45.977Z,95.70
2023-02-14T05:59:47.444Z,95.80
2023-02-14T06:02:48.926Z,95.90
2023-02-14T06:05:50.392Z,95.80
2023-02-14T06:08:51.907Z,95.90
2023-02-14T06:11:55.265Z,96.00
2023-02-14T06:14:56.921Z,96.00
2023-02-14T06:17:58.400Z,95.90
2023-02-14T06:21:00.204Z,95.80
2023-02-14T06:24:01.890Z,95.90
2023-02-14T06:27:03.386Z,95.90
2023-02-14T06:30:05.627Z,95.80
2023-02-14T06:33:07.105Z,95.80
2023-02-14T06:36:08.941Z,95.90
2023-02-14T06:39:10.412Z,95.90
2023-02-14T06:42:11.973Z,95.90
2023-02-14T06:45:13.473Z,95.90
2023-02-14T06:48:14.925Z,96.10
2023-02-14T06:51:16.608Z,96.00
2023-02-14T06:54:18.126Z,95.90
2023-02-14T06:57:19.579Z,96.00
2023-02-14T07:00:21.321Z,96.10
2023-02-14T07:03:22.981Z,95.80
2023-02-14T07:06:24.441Z,96.00
2023-02-14T07:09:25.880Z,96.10
2023-02-14T07:12:27.359Z,96.10
2023-02-14T07:15:29.065Z,96.00
2023-02-14T07:18:30.599Z,95.90
2023-02-14T07:21:32.154Z,96.10
2023-02-14T07:24:33.624Z,96.10
2023-02-14T07:27:35.321Z,96.00
2023-02-14T07:30:36.833Z,95.80
2023-02-14T07:33:38.340Z,95.70
2023-02-14T07:36:41.700Z,95.70
2023-02-14T07:39:44.042Z,95.60
2023-02-14T07:42:52.118Z,95.60
2023-02-14T07:45:53.675Z,95.60
2023-02-14T07:48:55.266Z,95.50
2023-02-14T07:51:56.750Z,95.40
2023-02-14T07:54:58.238Z,95.30
2023-02-14T07:57:59.742Z,95.40
2023-02-14T08:01:01.633Z,95.60
2023-02-14T08:04:03.390Z,95.30
2023-02-14T08:07:04.941Z,95.30
2023-02-14T08:10:06.768Z,95.30
2023-02-14T08:13:08.359Z,95.00
2023-02-14T08:16:11.578Z,95.70
2023-02-14T08:19:13.134Z,95.30
2023-02-14T08:22:14.648Z,95.30
2023-02-14T08:25:16.155Z,95.30
2023-02-14T08:28:18.210Z,95.20
2023-02-14T08:31:34.374Z,95.30
2023-02-14T08:34:36.961Z,94.60
2023-02-14T08:37:38.450Z,95.30
2023-02-14T08:40:39.968Z,95.40
2023-02-14T08:43:41.681Z,95.30
2023-02-14T08:46:43.262Z,95.20
2023-02-14T08:49:44.738Z,95.20
2023-02-14T08:52:46.279Z,95.10
2023-02-14T08:55:48.452Z,95.00
2023-02-14T08:58:54.394Z,95.10
2023-02-14T09:01:56.146Z,94.40
2023-02-14T09:04:57.621Z,94.80
2023-02-14T09:07:59.412Z,95.00
2023-02-14T09:11:07.880Z,95.10
2023-02-14T09:14:09.456Z,94.40
2023-02-14T09:17:12.431Z,95.00
2023-02-14T09:20:14.706Z,95.40
2023-02-14T09:23:16.383Z,95.00
2023-02-14T09:26:18.328Z,94.80
2023-02-14T09:29:19.849Z,94.80
2023-02-14T09:32:21.366Z,94.90
2023-02-14T09:35:41.742Z,94.70
2023-02-14T09:38:43.269Z,94.10
2023-02-14T09:41:56.885Z,94.60
2023-02-14T09:45:04.480Z,93.90
2023-02-14T09:48:17.915Z,93.90
2023-02-14T09:51:21.168Z,93.90
2023-02-14T09:54:29.384Z,94.40
2023-02-14T09:57:41.729Z,93.80
2023-02-14T10:00:48.664Z,94.20
2023-02-14T10:04:09.295Z,93.80
2023-02-14T10:07:12.039Z,93.70
2023-02-14T10:10:20.116Z,94.20
2023-02-14T10:13:24.510Z,93.40
2023-02-14T10:16:29.342Z,93.60
2023-02-14T10:19:33.829Z,94.20
2023-02-14T10:22:40.044Z,93.30
2023-02-14T10:25:46.607Z,94.00
2023-02-14T10:28:49.213Z,93.90
2023-02-14T10:32:00.729Z,94.30
2023-02-14T10:35:05.768Z,93.10
2023-02-14T10:38:07.209Z,93.90
2023-02-14T10:41:25.990Z,93.80
2023-02-14T10:44:46.497Z,93.20
2023-02-14T10:48:05.719Z,93.20
2023-02-14T10:51:16.448Z,93.10
2023-02-14T10:54:47.357Z,92.90
2023-02-14T10:57:51.170Z,92.90
2023-02-14T11:01:05.311Z,93.50
2023-02-14T11:04:08.632Z,92.80
2023-02-14T11:07:14.210Z,93.90
2023-02-14T11:10:15.870Z,92.80
2023-02-14T11:13:31.556Z,93.30
2023-02-14T11:16:34.140Z,92.60
2023-02-14T11:19:37.444Z,93.40
2023-02-14T11:22:39.162Z,93.40
2023-02-14T11:25:40.656Z,93.50
2023-02-14T11:28:53.597Z,93.30
2023-02-14T11:31:56.046Z,92.70
2023-02-14T11:35:02.698Z,93.40
2023-02-14T11:38:06.052Z,92.50
2023-02-14T11:41:10.136Z,93.10
2023-02-14T11:44:15.298Z,93.60
2023-02-14T11:47:27.333Z,93.70
2023-02-14T11:50:28.986Z,92.40
2023-02-14T11:53:50.301Z,93.10
2023-02-14T11:56:53.799Z,92.50
2023-02-14T11:59:56.975Z,93.20
2023-02-14T12:03:00.004Z,93.20
2023-02-14T12:06:02.731Z,93.10
2023-02-14T12:09:10.704Z,93.50
2023-02-14T12:12:25.181Z,92.30
2023-02-14T12:15:36.530Z,92.30
2023-02-14T12:18:41.152Z,92.20
2023-02-14T12:21:42.754Z,92.90
2023-02-14T12:24:49.752Z,93.30
2023-02-14T12:28:01.316Z,92.90
2023-02-14T12:31:03.565Z,92.20
2023-02-14T12:34:05.708Z,93.00
2023-02-14T12:37:23.637Z,93.10
2023-02-14T12:40:43.453Z,92.30
2023-02-14T12:43:55.705Z,92.30
2023-02-14T12:47:16.073Z,92.30
2023-02-14T12:50:36.365Z,92.20
2023-02-14T12:53:42.194Z,92.30
2023-02-14T12:56:43.626Z,93.30
2023-02-14T13:00:00.161Z,92.90
2023-02-14T13:03:22.424Z,92.00
2023-02-14T13:06:59.673Z,92.00
2023-02-14T13:10:13.129Z,91.90
2023-02-14T13:13:25.558Z,92.00
2023-02-14T13:16:30.944Z,92.30
2023-02-14T13:19:41.697Z,92.80
2023-02-14T13:22:43.659Z,92.00
2023-02-14T13:25:51.467Z,92.70
2023-02-14T13:28:56.372Z,92.00
2023-02-14T13:32:00.374Z,92.70
2023-02-14T13:35:02.374Z,92.70
2023-02-14T13:38:06.758Z,92.60
2023-02-14T13:41:09.354Z,92.60
2023-02-14T13:44:10.851Z,92.90
2023-02-14T13:47:28.015Z,92.80
2023-02-14T13:50:29.604Z,91.80
2023-02-14T13:53:33.266Z,92.40
2023-02-14T13:56:34.849Z,92.60
2023-02-14T13:59:36.405Z,92.70
2023-02-14T14:02:43.283Z,92.40
2023-02-14T14:05:47.477Z,91.60
2023-02-14T14:08:50.706Z,92.70
2023-02-14T14:11:52.280Z,92.80
2023-02-14T14:15:06.143Z,92.20
2023-02-14T14:18:13.800Z,91.50
2023-02-14T14:21:27.566Z,91.50
2023-02-14T14:24:30.203Z,91.50
2023-02-14T14:27:33.549Z,92.40
2023-02-14T14:30:35.036Z,92.20
2023-02-14T14:33:37.614Z,93.00
2023-02-14T14:36:39.062Z,92.40
2023-02-14T14:39:40.614Z,92.40
2023-02-14T14:42:42.567Z,92.50
2023-02-14T14:45:47.957Z,92.70
2023-02-14T14:48:51.322Z,91.90
2023-02-14T14:51:52.902Z,92.60
2023-02-14T14:54:54.583Z,92.80
2023-02-14T14:57:57.433Z,92.70
2023-02-14T15:00:59.204Z,92.60
2023-02-14T15:04:12.321Z,93.30
2023-02-14T15:07:18.248Z,92.20
2023-02-14T15:10:29.734Z,92.10
2023-02-14T15:13:53.590Z,92.20
2023-02-14T15:16:58.563Z,93.20
2023-02-14T15:20:05.563Z,93.00
2023-02-14T15:23:07.734Z,92.40
2023-02-14T15:26:21.367Z,92.90
2023-02-14T15:29:27.785Z,93.00
2023-02-14T15:32:34.301Z,92.40
2023-02-14T15:35:41.991Z,92.60
2023-02-14T15:38:43.488Z,93.20
2023-02-14T15:41:45.551Z,93.10
2023-02-14T15:44:47.016Z,93.30
2023-02-14T15:47:50.712Z,93.70
2023-02-14T15:50:54.808Z,93.80
2023-02-14T15:54:01.663Z,93.60
2023-02-14T15:57:03.967Z,93.30
2023-02-14T16:00:12.660Z,93.60
2023-02-14T16:03:24.252Z,93.40
2023-02-14T16:06:32.807Z,92.80
2023-02-14T16:09:34.612Z,92.70
2023-02-14T16:12:36.510Z,93.50
2023-02-14T16:15:42.012Z,93.60
2023-02-14T16:18:47.658Z,93.60
2023-02-14T16:21:56.317Z,93.10
2023-02-14T16:24:58.427Z,93.10
2023-02-14T16:27:59.955Z,94.50
2023-02-14T16:31:05.957Z,94.00
2023-02-14T16:34:09.659Z,94.00
2023-02-14T16:37:24.822Z,94.60
2023-02-14T16:40:27.483Z,93.50
2023-02-14T16:43:28.940Z,94.30
2023-02-14T16:46:31.854Z,94.20
2023-02-14T16:49:33.498Z,94.30
2023-02-14T16:52:35.177Z,94.10
2023-02-14T16:55:36.683Z,94.20
2023-02-14T16:58:38.501Z,94.40
2023-02-14T17:01:40.170Z,94.30
2023-02-14T17:04:41.838Z,94.20
2023-02-14T17:07:43.608Z,94.30
2023-02-14T17:10:47.422Z,94.30
2023-02-14T17:13:49.165Z,94.50
2023-02-14T17:16:51.036Z,94.30
2023-02-14T17:19:53.067Z,93.90
2023-02-14T17:22:55.429Z,94.60
2023-02-14T17:25:56.986Z,94.40
2023-02-14T17:28:58.555Z,94.00
2023-02-14T17:32:00.132Z,94.40
2023-02-14T17:35:03.398Z,94.80
2023-02-14T17:38:05.096Z,94.40
2023-02-14T17:41:22.189Z,94.40
2023-02-14T17:44:23.972Z,93.70
2023-02-14T17:47:25.440Z,94.50
2023-02-14T17:50:27.418Z,94.70
2023-02-14T17:53:28.928Z,94.30
2023-02-14T17:56:30.553Z,94.30
2023-02-14T17:59:32.190Z,94.40
2023-02-14T18:02:33.718Z,94.30
2023-02-14T18:05:38.260Z,94.20
2023-02-14T18:08:41.161Z,93.50
2023-02-14T18:11:44.269Z,94.10
2023-02-14T18:14:45.752Z,94.20
2023-02-14T18:17:53.093Z,94.20
2023-02-14T18:20:55.410Z,93.70
2023-02-14T18:23:59.903Z,94.20
2023-02-14T18:27:02.942Z,94.50
2023-02-14T18:30:05.480Z,94.50
2023-02-14T18:33:07.105Z,94.20
2023-02-14T18:36:13.287Z,94.70
2023-02-14T18:39:15.044Z,94.60
2023-02-14T18:42:16.811Z,94.50
2023-02-14T18:45:18.735Z,94.60
2023-02-14T18:48:20.356Z,94.90
2023-02-14T18:51:23.628Z,94.70
2023-02-14T18:54:25.496Z,95.00
2023-02-14T18:57:27.172Z,94.70
2023-02-14T19:00:32.350Z,94.60
2023-02-14T19:03:34.075Z,94.80
2023-02-14T19:06:35.848Z,95.10
2023-02-14T19:09:40.027Z,94.90
2023-02-14T19:12:41.686Z,95.10
2023-02-14T19:15:43.413Z,94.40
2023-02-14T19:18:45.526Z,94.70
2023-02-14T19:21:47.281Z,94.90
2023-02-14T19:24:51.930Z,95.30
2023-02-14T19:27:53.455Z,94.10
2023-02-14T19:30:58.526Z,95.00
2023-02-14T19:34:00.182Z,94.50
2023-02-14T19:37:02.322Z,94.70
2023-02-14T19:40:04.665Z,95.00
2023-02-14T19:43:06.180Z,94.50
2023-02-14T19:46:07.702Z,94.60
2023-02-14T19:49:12.448Z,94.60
2023-02-14T19:52:25.787Z,94.80
2023-02-14T19:55:28.023Z,94.50
2023-02-14T19:58:29.501Z,94.80
2023-02-14T20:01:35.937Z,94.60
2023-02-14T20:04:37.473Z,93.80
2023-02-14T20:07:38.934Z,94.60
2023-02-14T20:10:40.417Z,94.60
2023-02-14T20:13:42.006Z,94.60
2023-02-14T20:16:44.287Z,94.50
2023-02-14T20:19:45.812Z,94.60
2023-02-14T20:22:47.475Z,94.60
2023-02-14T20:25:49.324Z,94.70
2023-02-14T20:28:50.821Z,94.00
2023-02-14T20:31:53.627Z,94.40
2023-02-14T20:34:55.955Z,94.50
2023-02-14T20:37:58.993Z,94.50
2023-02-14T20:41:07.067Z,94.10
2023-02-14T20:44:09.747Z,93.90
2023-02-14T20:47:11.374Z,94.50
2023-02-14T20:50:12.858Z,94.60
2023-02-14T20:53:14.374Z,94.80
2023-02-14T20:56:16.062Z,94.50
2023-02-14T20:59:19.201Z,94.50
2023-02-14T21:02:20.698Z,94.50
2023-02-14T21:05:22.150Z,94.50
2023-02-14T21:08:23.654Z,94.50
2023-02-14T21:11:26.661Z,94.90
2023-02-14T21:14:28.252Z,94.60
2023-02-14T21:17:29.761Z,94.60
2023-02-14T21:20:31.246Z,94.50
2023-02-14T21:23:32.791Z,95.00
2023-02-14T21:26:34.320Z,94.60
2023-02-14T21:29:35.779Z,94.40
2023-02-14T21:32:37.291Z,94.60
2023-02-14T21:35:38.774Z,94.40
2023-02-14T21:38:40.329Z,94.50
2023-02-14T21:41:41.915Z,94.40
2023-02-14T21:45:02.249Z,94.50
2023-02-14T21:48:22.240Z,94.00
2023-02-14T21:51:23.806Z,94.80
2023-02-14T21:54:25.266Z,94.80
2023-02-14T21:57:26.737Z,94.90
2023-02-14T22:00:28.232Z,94.90
2023-02-14T22:03:29.753Z,94.90
2023-02-14T22:06:31.337Z,94.70
2023-02-14T22:09:32.843Z,94.70
2023-02-14T22:12:34.364Z,94.80
2023-02-14T22:15:37.437Z,94.50
2023-02-14T22:18:39.277Z,94.60
2023-02-14T22:21:41.293Z,94.60
2023-02-14T22:24:42.772Z,94.60
2023-02-14T22:27:44.519Z,94.60
2023-02-14T22:30:45.994Z,94.60
2023-02-14T22:33:48.472Z,94.60
2023-02-14T22:36:51.064Z,94.60
2023-02-14T22:39:53.005Z,94.60
2023-02-14T22:42:54.493Z,94.10
2023-02-14T22:45:55.947Z,94.60
2023-02-14T22:49:00.783Z,94.50
2023-02-14T22:52:02.314Z,94.60
2023-02-14T22:58:44.959Z,94.30
2023-02-14T23:01:51.893Z,94.30
2023-02-14T23:04:57.356Z,95.30
2023-02-14T23:08:11.013Z,95.70
2023-02-14T23:11:14.300Z,96.20
2023-02-14T23:14:34.863Z,94.70
2023-02-14T23:17:54.885Z,94.90
2023-02-14T23:21:14.782Z,94.20
2023-02-14T23:24:16.239Z,94.30
2023-02-14T23:27:20.049Z,94.80
2023-02-14T23:30:22.177Z,94.90
2023-02-14T23:33:23.756Z,94.90
2023-02-14T23:36:25.235Z,94.90
2023-02-14T23:39:26.909Z,94.90
2023-02-14T23:42:28.759Z,95.00
2023-02-14T23:45:36.190Z,94.60
2023-02-14T23:48:37.733Z,94.40
2023-02-14T23:51:39.580Z,94.80
2023-02-14T23:54:41.075Z,94.80
2023-02-14T23:57:42.660Z,94.90
